Time;durP1;ratioP1;P1;durP2;ratioP2;P2;SDS_P1;SDS_P2;PMS_P1;PMS_P2;Temp;Humidity;BMP_temperature;BMP_pressure;BME280_temperature;BME280_humidity;BME280_pressure;Samples;Min_cycle;Max_cycle;Signal;HPM_P1;HPM_P2
2022/05/01 00:01:20;;;;;;;5.55;4.00;;;5.90;26.10;;;;;;4995626;28;34185;-78
2022/05/01 00:03:46;;;;;;;4.93;3.63;;;5.90;26.10;;;;;;4986693;28;34241;-77
2022/05/01 00:06:13;;;;;;;4.70;3.58;;;5.80;26.00;;;;;;5004679;28;34206;-77
2022/05/01 00:08:40;;;;;;;4.22;3.15;;;5.80;26.20;;;;;;4988174;28;34655;-77
2022/05/01 00:11:08;;;;;;;7.43;4.15;;;5.80;26.00;;;;;;4987906;28;36462;-77
2022/05/01 00:13:35;;;;;;;4.47;3.50;;;5.70;26.10;;;;;;4988681;28;34293;-78
2022/05/01 00:16:01;;;;;;;4.05;3.47;;;5.70;26.30;;;;;;5004357;28;34264;-77
2022/05/01 00:18:27;;;;;;;5.50;3.58;;;5.70;26.40;;;;;;4987992;28;34047;-77
2022/05/01 00:20:53;;;;;;;5.72;3.88;;;5.70;26.50;;;;;;4990596;28;35462;-77
2022/05/01 00:23:19;;;;;;;4.95;3.75;;;5.60;26.40;;;;;;4987910;28;34231;-77
2022/05/01 00:25:46;;;;;;;4.72;3.70;;;5.60;26.50;;;;;;4989430;28;34110;-77
2022/05/01 00:28:14;;;;;;;5.15;3.65;;;5.60;26.50;;;;;;4985822;28;34069;-77
2022/05/01 00:30:40;;;;;;;4.05;3.58;;;5.50;27.30;;;;;;4979867;28;35998;-77
2022/05/01 00:38:30;;;;;;;5.40;4.22;;;5.50;26.80;;;;;;4993209;28;34213;-77
2022/05/01 00:40:57;;;;;;;4.95;4.13;;;5.50;27.00;;;;;;4968527;28;36693;-77
2022/05/01 00:43:23;;;;;;;3.97;3.47;;;5.40;26.80;;;;;;5004119;28;34130;-77
2022/05/01 00:45:49;;;;;;;4.65;3.75;;;5.40;26.80;;;;;;5003775;28;34123;-77
2022/05/01 00:48:15;;;;;;;4.25;3.80;;;5.30;27.00;;;;;;4987369;28;34137;-77
2022/05/01 00:50:43;;;;;;;4.75;3.53;;;5.30;27.00;;;;;;4986717;28;36402;-77
2022/05/01 00:53:10;;;;;;;5.00;3.63;;;5.20;27.00;;;;;;4987808;28;34456;-77
2022/05/01 00:55:37;;;;;;;6.70;4.10;;;5.20;27.00;;;;;;4991490;28;34067;-77
2022/05/01 00:58:06;;;;;;;4.80;3.90;;;5.10;27.20;;;;;;4984410;28;34104;-77
2022/05/01 01:00:33;;;;;;;5.70;4.40;;;5.10;27.50;;;;;;4984292;28;34481;-77
2022/05/01 01:02:59;;;;;;;4.70;3.85;;;5.00;27.30;;;;;;4967529;28;34239;-77
2022/05/01 01:05:25;;;;;;;4.10;3.15;;;5.00;27.10;;;;;;4951449;28;34180;-77
2022/05/01 01:07:52;;;;;;;6.95;4.25;;;5.00;27.20;;;;;;4967263;28;34343;-77
2022/05/01 01:10:18;;;;;;;6.38;4.50;;;4.90;27.50;;;;;;4984877;28;34231;-77
2022/05/01 01:15:29;;;;;;;5.00;3.72;;;4.90;27.60;;;;;;4984350;28;34160;-77
2022/05/01 01:17:56;;;;;;;4.97;3.83;;;4.80;27.70;;;;;;4952137;28;34146;-77
2022/05/01 01:20:25;;;;;;;8.32;4.20;;;4.80;27.60;;;;;;4950867;28;35713;-77
2022/05/01 01:22:55;;;;;;;5.50;4.28;;;4.80;27.60;;;;;;4951861;28;34066;-77
2022/05/01 01:25:23;;;;;;;6.95;4.35;;;4.70;28.00;;;;;;4968377;28;34215;-77
2022/05/01 01:27:52;;;;;;;6.53;4.40;;;4.70;28.10;;;;;;4954555;28;34517;-76
2022/05/01 01:33:00;;;;;;;5.22;4.20;;;4.70;28.20;;;;;;5003515;28;34058;-77
2022/05/01 01:35:27;;;;;;;7.50;4.60;;;4.70;28.20;;;;;;4986525;28;34433;-77
2022/05/01 01:37:55;;;;;;;5.57;3.90;;;4.60;28.00;;;;;;4971183;28;34111;-77
2022/05/01 01:40:23;;;;;;;7.53;4.35;;;4.60;28.00;;;;;;4970508;28;35961;-77
2022/05/01 01:42:52;;;;;;;6.38;4.30;;;4.60;28.00;;;;;;4987065;28;34162;-77
2022/05/01 01:45:19;;;;;;;6.43;4.60;;;4.50;28.00;;;;;;5004121;28;34133;-77
2022/05/01 01:47:49;;;;;;;6.30;4.70;;;4.50;28.10;;;;;;4970360;28;34235;-77
2022/05/01 01:50:17;;;;;;;7.15;4.15;;;4.40;28.20;;;;;;4987029;28;34770;-77
2022/05/01 01:52:46;;;;;;;5.88;4.03;;;4.40;28.20;;;;;;4975287;28;34293;-77
2022/05/01 01:55:15;;;;;;;4.63;3.83;;;4.40;28.40;;;;;;4998864;28;34403;-77
2022/05/01 01:57:42;;;;;;;6.93;4.07;;;4.30;28.50;;;;;;4983813;28;34193;-77
2022/05/01 02:00:08;;;;;;;9.73;4.40;;;4.30;28.50;;;;;;4983458;28;34761;-77
2022/05/01 02:02:34;;;;;;;7.43;4.55;;;4.30;28.60;;;;;;4966810;28;34159;-77
2022/05/01 02:05:00;;;;;;;8.32;5.25;;;4.30;28.40;;;;;;4950301;28;34089;-77
2022/05/01 02:07:29;;;;;;;6.40;4.70;;;4.30;28.60;;;;;;4950874;28;34082;-77
2022/05/01 02:09:55;;;;;;;7.28;4.93;;;4.20;28.60;;;;;;4971981;28;35744;-77
2022/05/01 02:12:20;;;;;;;9.20;5.40;;;4.20;28.50;;;;;;4986097;28;34061;-77
2022/05/01 02:14:46;;;;;;;5.78;4.00;;;4.20;28.70;;;;;;5003567;28;34229;-77
2022/05/01 02:17:12;;;;;;;7.07;5.00;;;4.20;28.80;;;;;;5002837;28;34324;-77
2022/05/01 02:19:38;;;;;;;7.38;4.35;;;4.10;28.80;;;;;;4969816;28;35887;-77
2022/05/01 02:22:04;;;;;;;6.60;4.47;;;4.10;28.80;;;;;;4986911;28;33991;-77
2022/05/01 02:24:31;;;;;;;7.85;4.70;;;4.10;28.80;;;;;;4985954;28;34237;-77
2022/05/01 02:26:57;;;;;;;6.93;4.78;;;4.00;29.00;;;;;;4985921;28;34158;-77
2022/05/01 02:29:23;;;;;;;7.70;5.05;;;4.00;29.10;;;;;;4969213;28;35830;-77
2022/05/01 02:31:53;;;;;;;6.55;4.05;;;4.00;29.20;;;;;;4983626;28;34421;-77
2022/05/01 02:34:22;;;;;;;13.07;4.88;;;3.90;29.30;;;;;;4986534;28;34102;-77
2022/05/01 02:36:48;;;;;;;7.07;4.57;;;4.00;29.30;;;;;;4969767;28;34268;-77
2022/05/01 02:39:14;;;;;;;7.22;4.88;;;3.90;29.20;;;;;;4985730;28;34950;-76
2022/05/01 02:41:40;;;;;;;6.85;4.75;;;3.90;29.10;;;;;;4985787;28;34007;-77
2022/05/01 02:44:06;;;;;;;6.65;4.90;;;3.90;28.90;;;;;;4986148;28;34099;-76
2022/05/01 02:46:32;;;;;;;8.82;4.68;;;3.90;29.00;;;;;;4987529;28;34103;-77
2022/05/01 02:48:59;;;;;;;8.75;4.80;;;3.80;29.00;;;;;;4982275;28;36834;-76
2022/05/01 02:51:25;;;;;;;7.05;4.80;;;3.80;29.00;;;;;;4966526;28;34262;-77
2022/05/01 02:53:51;;;;;;;6.13;4.35;;;3.80;29.10;;;;;;4967576;28;34150;-77
2022/05/01 02:56:17;;;;;;;6.45;4.53;;;3.70;29.20;;;;;;4985679;28;34147;-77
2022/05/01 02:58:43;;;;;;;6.93;5.05;;;3.70;29.10;;;;;;4966595;28;35614;-77
2022/05/01 03:01:09;;;;;;;7.55;4.47;;;3.70;29.00;;;;;;4985262;28;34210;-77
2022/05/01 03:03:35;;;;;;;6.45;4.32;;;3.60;29.00;;;;;;4985455;28;34533;-76
2022/05/01 03:06:01;;;;;;;6.57;4.45;;;3.60;29.20;;;;;;5002177;28;34071;-77
2022/05/01 03:08:27;;;;;;;7.28;4.78;;;3.60;29.20;;;;;;4986580;28;36548;-77
2022/05/01 03:10:53;;;;;;;8.30;4.45;;;3.50;29.40;;;;;;4989075;28;34284;-77
2022/05/01 03:13:19;;;;;;;6.38;4.53;;;3.50;29.60;;;;;;4985185;28;34236;-77
2022/05/01 03:15:45;;;;;;;9.00;4.90;;;3.40;29.70;;;;;;4986448;28;34118;-77
2022/05/01 03:23:35;;;;;;;8.60;4.65;;;3.40;29.90;;;;;;5006447;28;34511;-76
2022/05/01 03:26:01;;;;;;;5.57;4.22;;;3.40;29.90;;;;;;5006609;28;34287;-77
2022/05/01 03:28:27;;;;;;;8.30;5.03;;;3.30;29.80;;;;;;4988288;28;36037;-77
2022/05/01 03:30:53;;;;;;;7.00;4.53;;;3.30;29.90;;;;;;4942139;28;34098;-77
2022/05/01 03:33:21;;;;;;;7.25;4.70;;;3.30;29.90;;;;;;4969256;28;34059;-77
2022/05/01 03:35:48;;;;;;;7.05;4.88;;;3.30;30.00;;;;;;4969191;28;34458;-77
2022/05/01 03:38:15;;;;;;;6.93;4.93;;;3.20;30.10;;;;;;4969099;28;35742;-77
2022/05/01 03:40:42;;;;;;;5.40;4.38;;;3.20;30.30;;;;;;4987781;28;34072;-77
2022/05/01 03:43:08;;;;;;;8.50;4.85;;;3.20;30.30;;;;;;4988200;28;34538;-77
2022/05/01 03:45:34;;;;;;;5.82;4.65;;;3.20;30.10;;;;;;5005196;28;34137;-77
2022/05/01 03:48:00;;;;;;;6.18;4.50;;;3.20;30.00;;;;;;5004772;28;36645;-77
2022/05/01 03:50:27;;;;;;;6.53;4.60;;;3.20;30.20;;;;;;4988327;28;34217;-77
2022/05/01 03:52:53;;;;;;;6.88;5.32;;;3.20;30.10;;;;;;5006111;28;34239;-76
2022/05/01 03:55:19;;;;;;;7.68;4.38;;;3.20;30.00;;;;;;4988593;28;34540;-77
2022/05/01 03:57:44;;;;;;;7.68;5.32;;;3.10;30.10;;;;;;5004635;28;36254;-76
2022/05/01 04:00:11;;;;;;;7.80;4.63;;;3.10;30.20;;;;;;5006102;28;34360;-76
2022/05/01 04:02:42;;;;;;;7.25;5.15;;;3.10;30.10;;;;;;5004255;28;34074;-77
2022/05/01 04:05:10;;;;;;;7.32;4.85;;;3.10;30.70;;;;;;4985365;28;34180;-77
2022/05/01 04:07:36;;;;;;;6.72;4.85;;;3.10;30.50;;;;;;4987600;28;34461;-76
2022/05/01 04:10:02;;;;;;;7.60;5.13;;;3.10;30.50;;;;;;4988601;28;34095;-77
2022/05/01 04:12:28;;;;;;;9.10;5.03;;;3.00;30.30;;;;;;5004129;28;34071;-76
2022/05/01 04:14:56;;;;;;;6.60;4.53;;;3.10;30.50;;;;;;5005995;28;33993;-77
2022/05/01 04:17:22;;;;;;;7.68;5.00;;;3.00;30.40;;;;;;4987624;28;36028;-76
2022/05/01 04:19:48;;;;;;;7.68;4.47;;;3.00;30.40;;;;;;5005400;28;34180;-76
2022/05/01 04:22:15;;;;;;;8.43;4.68;;;3.00;30.60;;;;;;4988685;28;34421;-77
2022/05/01 04:24:41;;;;;;;7.13;5.18;;;3.00;30.90;;;;;;4988571;28;34465;-77
2022/05/01 04:27:07;;;;;;;6.40;4.80;;;3.00;30.70;;;;;;5004398;28;35579;-77
2022/05/01 04:29:36;;;;;;;9.05;4.88;;;3.00;30.80;;;;;;5004038;28;34406;-76
2022/05/01 04:32:02;;;;;;;6.75;5.00;;;3.00;31.00;;;;;;5004433;28;34050;-77
2022/05/01 04:34:28;;;;;;;6.63;4.82;;;3.00;30.70;;;;;;4988249;28;34221;-76
2022/05/01 04:36:54;;;;;;;7.30;5.15;;;3.00;30.80;;;;;;4988190;28;36398;-76
2022/05/01 04:39:20;;;;;;;5.97;4.75;;;3.10;30.90;;;;;;5004435;28;34288;-76
2022/05/01 04:41:46;;;;;;;8.18;5.50;;;3.10;30.80;;;;;;5002931;28;34052;-76
2022/05/01 04:44:12;;;;;;;5.97;4.82;;;3.10;30.60;;;;;;5004412;28;34071;-77
2022/05/01 04:46:38;;;;;;;6.78;5.30;;;3.10;30.40;;;;;;5004687;28;35263;-76
2022/05/01 04:49:04;;;;;;;7.53;5.28;;;3.10;30.40;;;;;;4988379;28;34106;-76
2022/05/01 04:51:30;;;;;;;8.13;4.65;;;3.20;30.50;;;;;;4984154;28;34109;-76
2022/05/01 04:53:57;;;;;;;6.57;4.72;;;3.20;30.60;;;;;;4968483;28;34122;-77
2022/05/01 04:59:07;;;;;;;8.80;4.78;;;3.30;30.50;;;;;;5004319;28;34078;-76
2022/05/01 05:01:35;;;;;;;8.70;6.03;;;3.30;30.40;;;;;;4995318;28;34143;-76
2022/05/01 05:04:02;;;;;;;6.78;4.55;;;3.30;30.80;;;;;;4988207;28;34471;-76
2022/05/01 05:06:28;;;;;;;9.73;5.80;;;3.40;30.70;;;;;;4970820;28;36828;-76
2022/05/01 05:11:35;;;;;;;6.60;5.00;;;3.50;30.70;;;;;;5004774;28;34173;-76
2022/05/01 05:14:00;;;;;;;7.15;5.75;;;3.60;30.60;;;;;;5005048;28;34243;-76
2022/05/01 05:16:29;;;;;;;7.90;5.40;;;3.70;30.60;;;;;;5004311;28;35175;-76
2022/05/01 05:18:55;;;;;;;8.60;6.18;;;3.80;30.50;;;;;;5004986;28;34074;-76
2022/05/01 05:21:21;;;;;;;11.10;6.60;;;3.90;30.40;;;;;;5003383;28;34388;-76
2022/05/01 05:23:47;;;;;;;7.85;5.70;;;4.00;30.20;;;;;;4987600;28;34078;-76
2022/05/01 05:26:13;;;;;;;9.13;5.90;;;4.10;30.10;;;;;;4967375;28;35483;-76
2022/05/01 05:28:38;;;;;;;9.15;5.35;;;4.30;30.10;;;;;;4951147;28;34389;-76
2022/05/01 05:31:05;;;;;;;9.40;6.63;;;4.40;30.00;;;;;;4966713;28;34222;-76
2022/05/01 05:33:30;;;;;;;9.05;5.75;;;4.50;30.00;;;;;;4967361;28;34226;-77
2022/05/01 05:35:56;;;;;;;9.50;5.95;;;4.60;29.80;;;;;;4961073;28;35526;-76
2022/05/01 05:38:22;;;;;;;10.27;6.03;;;4.80;29.70;;;;;;4966664;28;34075;-76
2022/05/01 05:40:48;;;;;;;8.40;5.95;;;5.00;29.60;;;;;;4943994;28;34383;-76
2022/05/01 05:43:14;;;;;;;10.40;6.25;;;5.20;29.20;;;;;;4967627;28;34166;-76
2022/05/01 05:45:40;;;;;;;8.65;6.13;;;5.60;28.50;;;;;;4951276;28;35708;-76
2022/05/01 05:48:06;;;;;;;8.77;6.00;;;6.00;27.90;;;;;;4967439;28;34203;-76
2022/05/01 05:50:32;;;;;;;9.63;6.60;;;6.40;27.60;;;;;;4951024;28;34124;-76
2022/05/01 05:52:58;;;;;;;8.07;6.15;;;6.70;27.00;;;;;;4967213;28;34222;-76
2022/05/01 05:55:24;;;;;;;8.00;5.80;;;7.20;26.20;;;;;;4967035;28;35603;-77
2022/05/01 05:57:50;;;;;;;9.50;6.22;;;7.80;25.50;;;;;;4951174;28;34092;-76
2022/05/01 06:00:16;;;;;;;8.20;6.45;;;8.40;24.50;;;;;;4982738;28;34902;-76
2022/05/01 06:02:42;;;;;;;7.45;5.20;;;9.00;23.00;;;;;;4984140;28;34305;-76
2022/05/01 06:05:08;;;;;;;7.45;5.30;;;9.60;21.70;;;;;;4950982;28;35539;-76
2022/05/01 06:07:34;;;;;;;7.18;5.55;;;10.20;20.50;;;;;;4934734;28;34541;-76
2022/05/01 06:10:00;;;;;;;8.10;5.35;;;10.70;19.60;;;;;;4984526;28;34033;-76
2022/05/01 06:12:28;;;;;;;6.82;5.18;;;11.20;19.00;;;;;;4950924;28;34150;-76
2022/05/01 06:14:54;;;;;;;7.45;5.05;;;11.70;18.50;;;;;;4984839;28;35901;-76
2022/05/01 06:17:20;;;;;;;7.63;5.40;;;12.20;18.00;;;;;;4986364;28;34121;-76
2022/05/01 06:19:45;;;;;;;6.50;5.30;;;12.60;17.60;;;;;;4970205;28;34042;-76
2022/05/01 06:22:16;;;;;;;8.35;5.63;;;13.00;17.40;;;;;;4971577;28;34395;-76
2022/05/01 06:24:42;;;;;;;5.80;5.20;;;13.40;17.00;;;;;;4998764;28;36064;-76
2022/05/01 06:27:08;;;;;;;9.77;5.80;;;13.80;16.70;;;;;;4982879;28;34272;-76
2022/05/01 06:29:34;;;;;;;7.78;6.05;;;14.10;16.30;;;;;;4984493;28;34065;-77
2022/05/01 06:32:00;;;;;;;7.60;5.70;;;14.40;15.90;;;;;;4983077;28;34439;-77
2022/05/01 06:34:26;;;;;;;7.20;5.60;;;14.50;15.40;;;;;;4966252;28;35545;-77
2022/05/01 06:36:54;;;;;;;9.10;6.47;;;14.60;15.30;;;;;;4982418;28;34131;-77
2022/05/01 06:39:20;;;;;;;8.85;6.53;;;15.00;15.10;;;;;;4984720;28;34180;-77
2022/05/01 06:41:45;;;;;;;9.13;6.25;;;15.30;15.10;;;;;;4983467;28;34110;-77
2022/05/01 06:44:11;;;;;;;8.45;6.28;;;15.50;14.80;;;;;;4987411;28;34450;-78
2022/05/01 06:46:37;;;;;;;7.60;5.90;;;15.60;14.60;;;;;;5003341;28;34162;-78
2022/05/01 06:49:03;;;;;;;8.02;5.50;;;15.70;14.60;;;;;;4985484;28;34128;-78
2022/05/01 06:51:29;;;;;;;8.05;6.00;;;15.70;14.40;;;;;;4989908;28;34420;-77
2022/05/01 06:53:55;;;;;;;8.57;6.13;;;15.90;14.40;;;;;;4957269;28;35753;-78
2022/05/01 06:56:21;;;;;;;7.68;6.25;;;16.00;14.30;;;;;;4970390;28;34131;-77
2022/05/01 06:58:47;;;;;;;9.82;6.30;;;16.10;14.20;;;;;;4977140;28;34110;-78
2022/05/01 07:01:13;;;;;;;7.30;5.72;;;16.40;14.30;;;;;;5007157;28;34172;-78
2022/05/01 07:03:40;;;;;;;9.52;6.72;;;16.50;14.10;;;;;;4990178;28;35587;-78
2022/05/01 07:06:06;;;;;;;9.30;7.22;;;16.70;14.00;;;;;;4991158;28;34185;-77
2022/05/01 07:08:32;;;;;;;8.85;6.95;;;16.80;13.90;;;;;;4986496;28;34223;-78
2022/05/01 07:10:58;;;;;;;10.68;6.88;;;16.90;13.70;;;;;;4998016;28;34511;-77
2022/05/01 07:13:24;;;;;;;9.40;6.85;;;16.80;13.40;;;;;;5006355;28;35632;-77
2022/05/01 07:15:50;;;;;;;9.98;7.40;;;16.80;13.30;;;;;;5007783;28;34360;-78
2022/05/01 07:18:16;;;;;;;9.52;7.22;;;16.80;13.30;;;;;;4991116;28;34305;-77
2022/05/01 07:20:42;;;;;;;8.30;6.43;;;16.80;13.50;;;;;;4990756;28;34272;-77
2022/05/01 07:23:08;;;;;;;9.63;7.18;;;16.80;13.60;;;;;;5007051;28;36290;-78
2022/05/01 07:25:34;;;;;;;11.63;7.25;;;16.60;13.70;;;;;;5007228;28;34213;-78
2022/05/01 07:28:00;;;;;;;8.73;6.55;;;16.50;13.80;;;;;;4974978;28;34065;-79
2022/05/01 07:30:26;;;;;;;9.13;6.78;;;16.40;14.00;;;;;;4960026;28;34391;-78
2022/05/01 07:32:51;;;;;;;10.80;7.40;;;16.50;14.40;;;;;;5008122;28;34204;-78
2022/05/01 07:35:17;;;;;;;10.63;6.55;;;16.50;14.50;;;;;;4989849;28;34095;-78
2022/05/01 07:37:43;;;;;;;9.85;7.03;;;16.40;14.30;;;;;;4977014;28;34169;-79
2022/05/01 07:40:10;;;;;;;10.55;6.93;;;16.30;14.40;;;;;;5009916;28;34158;-78
2022/05/01 07:42:36;;;;;;;11.00;7.43;;;16.30;14.40;;;;;;4974403;28;36543;-77
2022/05/01 07:45:03;;;;;;;10.27;7.20;;;16.40;14.70;;;;;;4993305;28;34135;-78
2022/05/01 07:47:29;;;;;;;10.07;7.13;;;16.40;14.40;;;;;;5002456;28;34083;-78
2022/05/01 07:49:55;;;;;;;13.63;8.02;;;16.50;14.40;;;;;;4985455;28;34538;-78
2022/05/01 07:52:21;;;;;;;10.35;7.53;;;16.40;14.30;;;;;;4987427;28;35208;-78
2022/05/01 07:54:46;;;;;;;12.18;7.00;;;16.50;14.40;;;;;;4990332;28;34269;-79
2022/05/01 07:57:12;;;;;;;9.93;7.30;;;16.80;14.60;;;;;;4955940;28;34214;-78
2022/05/01 07:59:38;;;;;;;10.68;7.13;;;17.10;14.60;;;;;;4959985;28;34333;-79
2022/05/01 08:02:04;;;;;;;20.23;11.95;;;17.10;14.20;;;;;;4974139;28;35819;-78
2022/05/01 08:04:30;;;;;;;11.82;8.23;;;17.10;14.50;;;;;;4985807;28;34126;-79
2022/05/01 08:06:59;;;;;;;11.07;7.38;;;17.30;14.00;;;;;;4976965;28;34217;-78
2022/05/01 08:09:26;;;;;;;11.25;6.78;;;17.60;13.90;;;;;;4986339;28;34171;-79
2022/05/01 08:11:53;;;;;;;10.52;7.18;;;17.90;13.90;;;;;;4989816;28;35974;-78
2022/05/01 08:14:20;;;;;;;10.15;7.00;;;18.00;13.60;;;;;;4986647;28;34141;-78
2022/05/01 08:16:46;;;;;;;28.52;15.07;;;18.10;13.30;;;;;;4970050;28;34099;-78
2022/05/01 08:21:54;;;;;;;13.50;9.52;;;18.10;13.40;;;;;;4981803;28;34198;-79
2022/05/01 08:24:20;;;;;;;8.73;6.82;;;18.30;13.60;;;;;;4980422;28;34251;-79
2022/05/01 08:26:47;;;;;;;9.85;7.82;;;18.50;13.30;;;;;;4973322;28;34197;-78
2022/05/01 08:29:14;;;;;;;8.02;6.40;;;18.80;13.40;;;;;;4972847;28;34443;-79
2022/05/01 08:31:42;;;;;;;17.35;12.95;;;19.00;12.90;;;;;;5005989;28;35878;-78
2022/05/01 08:34:09;;;;;;;7.90;6.05;;;19.20;12.90;;;;;;4991413;28;34208;-78
2022/05/01 08:36:36;;;;;;;13.85;10.50;;;19.50;12.80;;;;;;4969929;28;34494;-77
2022/05/01 08:39:03;;;;;;;9.07;6.32;;;19.80;12.40;;;;;;4977662;28;34371;-78
2022/05/01 08:41:31;;;;;;;9.77;6.38;;;20.00;12.00;;;;;;4981861;28;36085;-78
2022/05/01 08:44:01;;;;;;;7.78;6.00;;;20.20;11.70;;;;;;4996574;28;34344;-78
2022/05/01 08:46:57;;;;;;;7.35;5.85;;;20.30;10.60;;;;;;4978472;28;34404;-78
2022/05/01 08:49:24;;;;;;;7.47;5.43;;;20.40;7.50;;;;;;5002045;28;34415;-77
2022/05/01 08:51:52;;;;;;;7.25;5.18;;;20.40;10.80;;;;;;4999371;28;35263;-78
2022/05/01 08:54:18;;;;;;;8.40;5.75;;;20.40;10.60;;;;;;4986305;28;34372;-80
2022/05/01 08:56:45;;;;;;;7.00;5.20;;;20.50;10.80;;;;;;4974294;28;34200;-79
2022/05/01 08:59:14;;;;;;;8.88;5.78;;;20.70;10.40;;;;;;4977920;28;34385;-79
2022/05/01 09:01:44;;;;;;;6.22;4.82;;;20.80;10.10;;;;;;4971493;28;34425;-81
2022/05/01 09:04:12;;;;;;;6.45;5.05;;;20.90;9.30;;;;;;5004755;28;34439;-77
2022/05/01 09:06:42;;;;;;;5.50;4.95;;;20.90;10.00;;;;;;4942043;28;34044;-78
2022/05/01 09:09:16;;;;;;;7.57;4.93;;;21.00;9.10;;;;;;4980611;28;34084;-78
2022/05/01 09:14:25;;;;;;;7.88;5.75;;;21.20;9.60;;;;;;4992460;28;33977;-78
2022/05/01 09:17:16;;;;;;;9.13;6.82;;;21.30;9.20;;;;;;4980195;28;34441;-79
2022/05/01 09:19:47;;;;;;;6.32;5.00;;;21.50;5.40;;;;;;4980948;28;35944;-79
2022/05/01 09:22:13;;;;;;;6.93;5.63;;;21.50;8.60;;;;;;4981296;28;35947;-78
2022/05/01 09:24:39;;;;;;;8.57;5.00;;;21.40;8.80;;;;;;4981432;28;34312;-79
2022/05/01 09:27:05;;;;;;;14.52;10.77;;;21.10;8.80;;;;;;4954370;28;34052;-78
2022/05/01 09:29:34;;;;;;;7.82;6.40;;;20.90;8.70;;;;;;4987576;28;34186;-79
2022/05/01 09:32:01;;;;;;;5.53;4.53;;;20.70;8.70;;;;;;4984213;28;36448;-80
2022/05/01 09:34:30;;;;;;;7.53;4.43;;;20.50;8.60;;;;;;4984897;28;34296;-79
2022/05/01 09:36:57;;;;;;;8.45;4.03;;;20.50;8.60;;;;;;4951565;28;34319;-77
2022/05/01 09:39:25;;;;;;;4.45;4.05;;;20.40;8.60;;;;;;4991950;28;34295;-78
2022/05/01 09:41:53;;;;;;;5.68;3.90;;;20.40;8.40;;;;;;4978564;28;35556;-78
2022/05/01 09:44:20;;;;;;;4.20;3.53;;;20.40;8.40;;;;;;4983732;28;34190;-78
2022/05/01 09:46:48;;;;;;;4.55;3.60;;;20.20;8.50;;;;;;4990367;28;34075;-79
2022/05/01 09:49:16;;;;;;;5.47;3.50;;;20.10;8.10;;;;;;4964507;28;34508;-79
2022/05/01 09:51:52;;;;;;;4.88;4.18;;;19.90;8.00;;;;;;4977686;28;35969;-79
2022/05/01 09:54:21;;;;;;;3.67;3.13;;;19.80;7.70;;;;;;4992598;28;34378;-78
2022/05/01 09:56:51;;;;;;;5.10;3.60;;;19.60;8.10;;;;;;4991091;28;34126;-79
2022/05/01 09:59:20;;;;;;;5.85;4.07;;;19.60;8.10;;;;;;4970851;28;34112;-78
2022/05/01 10:02:02;;;;;;;3.67;3.33;;;19.50;8.40;;;;;;4952104;28;35859;-78
2022/05/01 10:04:31;;;;;;;4.43;3.80;;;19.40;6.20;;;;;;4965243;28;34183;-78
2022/05/01 10:06:58;;;;;;;6.43;3.70;;;19.30;8.50;;;;;;4977330;28;34630;-79
2022/05/01 10:09:45;;;;;;;4.80;3.60;;;19.20;8.40;;;;;;4984731;28;34399;-79
2022/05/01 10:12:12;;;;;;;4.55;3.47;;;19.10;5.90;;;;;;4967907;28;35958;-78
2022/05/01 10:14:38;;;;;;;5.68;3.30;;;19.00;8.40;;;;;;4960555;28;34136;-78
2022/05/01 10:17:06;;;;;;;5.80;3.38;;;19.00;8.60;;;;;;4986090;28;34229;-78
2022/05/01 10:19:33;;;;;;;4.78;3.85;;;18.90;8.20;;;;;;4991123;28;34571;-78
2022/05/01 10:22:00;;;;;;;3.97;3.53;;;19.00;7.90;;;;;;4979673;28;35548;-78
2022/05/01 10:24:28;;;;;;;6.32;3.20;;;19.00;8.00;;;;;;4960939;28;34098;-78
2022/05/01 10:27:18;;;;;;;4.85;3.00;;;19.10;8.00;;;;;;4998052;28;34283;-79
2022/05/01 10:33:16;;;;;;;5.22;2.88;;;19.30;6.80;;;;;;4983687;28;33996;-78
2022/05/01 10:36:18;;;;;;;6.25;3.78;;;19.40;6.20;;;;;;4967295;28;34149;-78
2022/05/01 10:39:01;;;;;;;5.05;3.47;;;19.40;5.50;;;;;;4984841;28;34232;-79
2022/05/01 10:41:28;;;;;;;5.85;3.35;;;19.50;6.70;;;;;;4983157;28;34102;-78
2022/05/01 10:43:57;;;;;;;3.72;3.33;;;19.30;7.90;;;;;;4975277;28;36348;-76
2022/05/01 10:46:29;;;;;;;4.25;3.20;;;19.30;7.30;;;;;;4976671;28;34406;-78
2022/05/01 10:49:00;;;;;;;4.97;3.22;;;19.20;7.30;;;;;;4964433;28;34379;-79
2022/05/01 10:51:46;;;;;;;4.97;3.33;;;19.20;7.90;;;;;;4967641;28;34166;-78
2022/05/01 10:54:33;;;;;;;7.05;3.53;;;19.30;6.40;;;;;;4970328;28;36533;-78
2022/05/01 10:57:10;;;;;;;6.60;3.47;;;19.30;5.40;;;;;;4982464;28;34375;-78
2022/05/01 10:59:43;;;;;;;5.40;3.58;;;19.20;7.10;;;;;;4964668;28;34489;-78
2022/05/01 11:02:35;;;;;;;5.63;3.55;;;19.20;7.30;;;;;;4966833;28;34151;-78
2022/05/01 11:05:01;;;;;;;3.58;3.00;;;19.30;6.90;;;;;;4990721;28;35877;-78
2022/05/01 11:07:29;;;;;;;5.03;3.38;;;19.50;8.00;;;;;;4967170;28;34194;-79
2022/05/01 11:09:58;;;;;;;6.70;3.45;;;19.70;8.00;;;;;;5004348;28;34730;-79
2022/05/01 11:12:26;;;;;;;5.07;3.60;;;19.90;7.00;;;;;;4986204;28;34091;-77
2022/05/01 11:14:59;;;;;;;6.88;3.80;;;20.10;7.10;;;;;;4986444;28;35908;-78
2022/05/01 11:17:47;;;;;;;7.18;3.20;;;20.50;6.90;;;;;;4975165;28;34201;-78
2022/05/01 11:20:31;;;;;;;4.55;3.40;;;20.70;6.40;;;;;;4986221;28;34211;-77
2022/05/01 11:22:57;;;;;;;5.30;3.55;;;20.90;3.90;;;;;;4965504;28;34113;-77
2022/05/01 11:25:42;;;;;;;4.15;3.70;;;21.00;6.40;;;;;;4983761;28;34188;-79
2022/05/01 11:28:08;;;;;;;5.57;3.70;;;21.30;5.40;;;;;;4983879;28;34104;-78
2022/05/01 11:30:36;;;;;;;3.97;2.95;;;21.60;6.50;;;;;;4979449;28;34337;-79
2022/05/01 11:33:08;;;;;;;5.45;3.50;;;21.80;5.50;;;;;;4987791;28;34156;-79
2022/05/01 11:35:54;;;;;;;5.53;3.47;;;21.60;5.60;;;;;;4961258;28;36885;-78
2022/05/01 11:38:22;;;;;;;3.75;3.33;;;21.40;3.00;;;;;;4987784;28;34346;-79
2022/05/01 11:40:53;;;;;;;3.30;2.92;;;21.20;6.00;;;;;;4989844;28;34211;-78
2022/05/01 11:43:20;;;;;;;5.90;3.60;;;21.20;5.00;;;;;;4994714;28;34240;-78
2022/05/01 11:46:03;;;;;;;5.93;3.33;;;21.00;6.20;;;;;;4988416;28;36093;-77
2022/05/01 11:48:31;;;;;;;5.45;3.17;;;21.00;6.10;;;;;;4970028;28;34075;-78
2022/05/01 11:50:58;;;;;;;3.50;3.15;;;20.80;6.40;;;;;;4999647;28;34389;-78
2022/05/01 11:53:33;;;;;;;4.60;3.40;;;20.70;6.70;;;;;;4989120;28;34560;-78
2022/05/01 12:04:36;;;;;;;5.30;3.47;;;21.00;6.10;;;;;;4997297;28;34069;-79
2022/05/01 12:07:08;;;;;;;3.83;3.38;;;21.30;4.00;;;;;;4990841;28;35816;-78
2022/05/01 12:09:38;;;;;;;4.25;3.00;;;21.40;5.30;;;;;;4985543;28;34317;-79
2022/05/01 12:12:09;;;;;;;5.15;3.00;;;21.60;5.30;;;;;;4981765;28;34147;-78
2022/05/01 12:14:35;;;;;;;3.75;3.10;;;22.10;5.00;;;;;;4974888;28;34301;-79
2022/05/01 12:17:05;;;;;;;3.88;3.08;;;22.40;5.50;;;;;;4990465;28;36788;-78
2022/05/01 12:19:36;;;;;;;5.80;3.38;;;22.40;4.80;;;;;;4953256;28;34798;-77
2022/05/01 12:22:02;;;;;;;5.30;3.63;;;22.40;2.80;;;;;;4978146;28;33807;-78
2022/05/01 12:24:28;;;;;;;5.22;3.42;;;22.30;4.40;;;;;;4986047;28;34384;-78
2022/05/01 12:26:55;;;;;;;3.45;3.00;;;22.50;4.50;;;;;;4962089;28;35765;-78
2022/05/01 12:29:22;;;;;;;4.18;3.58;;;22.70;4.10;;;;;;4986703;28;34182;-80
2022/05/01 12:32:06;;;;;;;5.05;3.00;;;22.80;4.20;;;;;;4976249;28;34250;-80
2022/05/01 12:34:38;;;;;;;5.07;3.05;;;22.90;1.00;;;;;;4988907;28;34457;-80
2022/05/01 12:37:09;;;;;;;3.25;2.92;;;22.90;3.80;;;;;;4953789;28;35740;-78
2022/05/01 12:39:35;;;;;;;5.75;3.38;;;22.80;3.80;;;;;;4969575;28;34242;-78
2022/05/01 12:45:07;;;;;;;6.10;3.50;;;22.70;4.20;;;;;;4982584;28;34102;-78
2022/05/01 12:47:36;;;;;;;3.38;3.05;;;22.60;1.70;;;;;;4982167;28;35506;-79
2022/05/01 12:50:05;;;;;;;3.72;3.35;;;22.40;4.10;;;;;;5001887;28;34134;-78
2022/05/01 12:52:33;;;;;;;3.10;2.80;;;22.30;4.30;;;;;;4972946;28;34168;-78
2022/05/01 12:55:23;;;;;;;5.63;3.55;;;22.30;4.30;;;;;;4975715;28;34151;-78
2022/05/01 12:57:52;;;;;;;3.30;3.00;;;22.20;2.40;;;;;;4981543;28;36445;-77
2022/05/01 13:00:36;;;;;;;5.10;3.35;;;22.20;3.50;;;;;;4954254;28;34187;-78
2022/05/01 13:03:30;;;;;;;6.15;3.28;;;22.00;2.20;;;;;;4980099;28;34121;-78
2022/05/01 13:06:03;;;;;;;3.38;3.08;;;21.80;2.50;;;;;;4987956;28;34328;-78
2022/05/01 13:08:33;;;;;;;5.78;3.78;;;21.60;3.80;;;;;;4986334;28;34457;-79
2022/05/01 13:11:23;;;;;;;4.93;3.50;;;21.50;3.70;;;;;;4988286;28;34262;-78
2022/05/01 13:13:54;;;;;;;4.53;3.30;;;21.40;2.10;;;;;;4988279;28;34593;-78
2022/05/01 13:16:37;;;;;;;5.43;3.28;;;21.10;4.40;;;;;;4985002;28;34264;-78
2022/05/01 13:19:09;;;;;;;5.47;3.67;;;21.00;4.70;;;;;;4966664;28;35920;-78
2022/05/01 13:21:37;;;;;;;4.55;3.55;;;20.80;4.60;;;;;;5002285;28;34140;-78
2022/05/01 13:24:08;;;;;;;3.38;2.90;;;20.70;5.10;;;;;;4987755;28;34383;-78
2022/05/01 13:26:35;;;;;;;5.22;3.30;;;20.60;4.70;;;;;;4985843;28;34567;-79
2022/05/01 13:29:07;;;;;;;5.15;3.00;;;20.50;5.20;;;;;;4998932;28;36294;-79
2022/05/01 13:31:34;;;;;;;5.10;3.20;;;20.50;5.50;;;;;;4979055;28;34542;-78
2022/05/01 13:34:00;;;;;;;4.43;3.22;;;20.50;5.30;;;;;;4985461;28;34578;-78
2022/05/01 13:36:26;;;;;;;4.45;3.45;;;20.40;5.20;;;;;;4975302;28;34359;-78
2022/05/01 13:38:52;;;;;;;3.78;2.88;;;20.40;5.10;;;;;;4975785;28;35662;-79
2022/05/01 13:46:40;;;;;;;3.72;3.20;;;20.50;5.10;;;;;;4990991;28;34500;-78